Corrigan, TX (75939)

5:21 PM CST on December 06, 2016 (GMT -0600)
MesoWest | | Change Station

Elev 217 ft 31.01 °N, 94.83 °W | Updated 56 minutes ago

Overcast
Overcast
57.0 °F
Feels Like 57.0 °F
N
0.0
Wind Variable Wind from North
Gusts 0.0 mph

Today
High -- | Low -- °F
--% Chance of Precip.
Yesterday
High -- | Low -- °F
Precip. -- in
Pressure 29.99 in
Visibility 5.0 miles
Clouds Few 1100 ft
Overcast 2600 ft
Dew Point Not available.
Humidity Not available.
Rainfall in
Snow Depth Not available.
7:04 AM 5:17 PM
Waxing Crescent, 46% visible
METAR KLFK 062253Z AUTO 32003KT 5SM BR FEW011 OVC026 11/10 A2999 RMK AO2 RAB07E21 SLP154 P0001 T01060100
Pressure 29.99 in
Visibility 5.0 miles
Clouds Few 1100 ft
Overcast 2600 ft
Dew Point Not available.
Humidity Not available.
Rainfall in
Snow Depth Not available.
7:04 AM 5:17 PM
Waxing Crescent, 46% visible
METAR KLFK 062253Z AUTO 32003KT 5SM BR FEW011 OVC026 11/10 A2999 RMK AO2 RAB07E21 SLP154 P0001 T01060100

10-Day Weather Forecast

Almanac

Astronomy

Dec. 06, 2016 Rise Set
Actual Time
Civil Twilight
Nautical Twilight
Astronomical Twilight
Moon
Length of Visible Light
Length of Day
Tomorrow will be .
, % of the Moon is Illuminated

Today's Extremes

State Highs State Lows

Community

WunderPhotos

Upload Photos

1,956,044 photos uploaded!

WunderBlog® & News

Nearby

Air Quality

  Air Quality AQ Index Pollutant
Not available.

Snow Depth

Station Depth Elevation

Earthquake Activity

City Distance Mag. Time & Date
Minimum magnitude displayed is 2.5.

Coastal Water Temperatures

Place Temperature

Stations

Nearby Weather Stations

Station Location Temp. Windchill Dew Point Humidity Wind Precip. Elev Updated Type
                   

Watches & Warnings

There are currently no watches in effect.